createdAt,value
2018-07-16T00:00:38.630Z,56.67
2018-07-16T00:03:07.786Z,55.64
2018-07-16T00:05:36.962Z,55.62
2018-07-16T00:08:06.459Z,54.70
2018-07-16T00:10:35.648Z,55.71
2018-07-16T00:13:04.789Z,55.44
2018-07-16T00:15:34.142Z,55.19
2018-07-16T00:18:03.317Z,55.31
2018-07-16T00:20:32.486Z,56.08
2018-07-16T00:23:01.675Z,56.89
2018-07-16T00:25:30.913Z,56.46
2018-07-16T00:28:00.077Z,57.52
2018-07-16T00:30:29.237Z,56.74
2018-07-16T00:32:58.418Z,56.76
2018-07-16T00:35:27.585Z,56.44
2018-07-16T00:37:56.837Z,57.67
2018-07-16T00:40:26.020Z,56.92
2018-07-16T00:42:55.181Z,56.30
2018-07-16T00:45:24.361Z,55.10
2018-07-16T00:47:53.531Z,56.74
2018-07-16T00:50:22.703Z,55.34
2018-07-16T00:52:51.854Z,56.79
2018-07-16T00:55:21.050Z,56.99
2018-07-16T00:57:50.205Z,56.18
2018-07-16T01:00:19.561Z,56.08
2018-07-16T01:02:48.749Z,56.04
2018-07-16T01:05:17.904Z,55.90
2018-07-16T01:07:47.065Z,55.34
2018-07-16T01:10:16.282Z,55.87
2018-07-16T01:12:45.454Z,57.65
2018-07-16T01:15:14.618Z,58.19
2018-07-16T01:17:43.811Z,56.40
2018-07-16T01:20:12.981Z,55.92
2018-07-16T01:22:42.237Z,57.38
2018-07-16T01:25:11.414Z,57.56
2018-07-16T01:27:40.589Z,57.54
2018-07-16T01:30:09.754Z,58.59
2018-07-16T01:32:39.010Z,58.43
2018-07-16T01:35:08.240Z,57.97
2018-07-16T01:37:37.600Z,56.99
2018-07-16T01:40:06.812Z,56.78
2018-07-16T01:42:35.993Z,56.93
2018-07-16T01:45:05.202Z,58.02
2018-07-16T01:47:34.379Z,57.91
2018-07-16T01:50:03.566Z,57.53
2018-07-16T01:52:32.736Z,59.14
2018-07-16T01:55:01.899Z,57.26
2018-07-16T01:57:31.097Z,58.50
2018-07-16T02:00:00.249Z,59.40
2018-07-16T02:02:29.629Z,58.47
2018-07-16T02:04:59.803Z,59.26
2018-07-16T02:07:28.994Z,59.85
2018-07-16T02:09:58.176Z,59.28
2018-07-16T02:12:27.321Z,58.04
2018-07-16T02:14:56.476Z,60.40
2018-07-16T02:17:25.639Z,59.17
2018-07-16T02:19:54.817Z,59.45
2018-07-16T02:22:24.192Z,59.81
2018-07-16T02:24:53.340Z,60.22
2018-07-16T02:27:22.513Z,60.04
2018-07-16T02:29:51.691Z,60.17
2018-07-16T02:32:20.862Z,60.53
2018-07-16T02:34:50.058Z,59.46
2018-07-16T02:37:19.222Z,59.62
2018-07-16T02:39:48.377Z,59.80
2018-07-16T02:42:17.558Z,59.95
2018-07-16T02:44:46.721Z,59.62
2018-07-16T02:47:16.123Z,59.28
2018-07-16T02:49:45.278Z,59.31
2018-07-16T02:52:14.458Z,61.09
2018-07-16T02:54:43.618Z,58.35
2018-07-16T02:57:12.771Z,59.23
2018-07-16T02:59:42.101Z,60.60
2018-07-16T03:02:11.428Z,59.38
2018-07-16T03:04:40.638Z,60.16
2018-07-16T03:07:09.798Z,60.85
2018-07-16T03:09:38.966Z,61.03
2018-07-16T03:12:08.825Z,60.77
2018-07-16T03:14:38.043Z,61.10
2018-07-16T03:17:07.345Z,60.30
2018-07-16T03:19:36.661Z,61.90
2018-07-16T03:22:05.938Z,60.11
2018-07-16T03:24:35.103Z,59.97
2018-07-16T03:27:04.465Z,59.04
2018-07-16T03:29:33.692Z,60.57
2018-07-16T03:32:02.873Z,60.26
2018-07-16T03:34:32.042Z,58.89
2018-07-16T03:37:01.325Z,59.36
2018-07-16T03:39:30.687Z,60.89
2018-07-16T03:42:00.081Z,60.60
2018-07-16T03:44:29.452Z,59.89
2018-07-16T03:46:58.659Z,59.37
2018-07-16T03:49:27.833Z,61.46
2018-07-16T03:51:57.053Z,60.50
2018-07-16T03:54:26.233Z,59.89
2018-07-16T03:56:55.534Z,58.55
2018-07-16T03:59:24.714Z,58.48
2018-07-16T04:01:53.937Z,59.27
2018-07-16T04:04:23.148Z,59.80
2018-07-16T04:06:52.315Z,60.53
2018-07-16T04:09:21.487Z,60.29
2018-07-16T04:11:50.667Z,59.51
2018-07-16T04:14:20.172Z,60.62
2018-07-16T04:16:49.348Z,60.66
2018-07-16T04:19:18.520Z,59.14
2018-07-16T04:21:47.714Z,59.10
2018-07-16T04:24:16.885Z,59.50
2018-07-16T04:26:46.160Z,58.42
2018-07-16T04:29:15.328Z,59.92
2018-07-16T04:31:44.486Z,57.51
2018-07-16T04:34:13.651Z,58.00
2018-07-16T04:36:42.805Z,58.48
2018-07-16T04:39:11.974Z,59.10
2018-07-16T04:41:41.144Z,57.97
2018-07-16T04:44:10.310Z,57.65
2018-07-16T04:46:39.684Z,56.75
2018-07-16T04:49:08.850Z,56.52
2018-07-16T04:51:38.007Z,56.68
2018-07-16T04:54:07.177Z,55.96
2018-07-16T04:56:36.440Z,55.35
2018-07-16T04:59:05.820Z,55.66
2018-07-16T05:01:34.993Z,56.03
2018-07-16T05:04:04.170Z,55.03
2018-07-16T05:06:33.334Z,55.70
2018-07-16T05:09:02.564Z,57.39
2018-07-16T05:11:31.717Z,55.02
2018-07-16T05:14:00.905Z,54.10
2018-07-16T05:16:30.087Z,54.78
2018-07-16T05:18:59.369Z,53.75
2018-07-16T05:21:28.652Z,52.42
2018-07-16T05:23:57.917Z,54.43
2018-07-16T05:26:27.033Z,52.98
2018-07-16T05:28:56.237Z,49.08
2018-07-16T05:31:25.461Z,45.12
2018-07-16T05:33:54.644Z,43.17
2018-07-16T05:36:23.869Z,41.68
2018-07-16T05:38:53.202Z,37.11
2018-07-16T05:41:22.357Z,33.49
2018-07-16T05:43:51.532Z,36.06
2018-07-16T05:46:20.730Z,35.81
2018-07-16T05:48:49.933Z,36.33
2018-07-16T05:51:19.133Z,35.22
2018-07-16T05:53:48.290Z,36.16
2018-07-16T05:56:17.469Z,33.15
2018-07-16T05:58:46.638Z,31.32
2018-07-16T06:01:15.842Z,32.31
2018-07-16T06:03:45.014Z,31.26
2018-07-16T06:06:14.377Z,28.08
2018-07-16T06:08:43.575Z,27.83
2018-07-16T06:11:12.770Z,29.72
2018-07-16T06:13:41.933Z,29.15
2018-07-16T06:16:11.161Z,27.39
2018-07-16T06:18:40.392Z,26.90
2018-07-16T06:21:09.687Z,30.58
2018-07-16T06:23:38.861Z,30.68
2018-07-16T06:26:08.068Z,29.32
2018-07-16T06:28:37.240Z,27.01
2018-07-16T06:31:06.433Z,25.76
2018-07-16T06:33:35.618Z,26.02
2018-07-16T06:36:04.856Z,22.78
2018-07-16T06:38:34.050Z,22.30
2018-07-16T06:41:03.574Z,21.71
2018-07-16T06:43:32.567Z,23.25
2018-07-16T06:46:01.754Z,22.70
2018-07-16T06:48:30.937Z,21.69
2018-07-16T06:51:00.146Z,21.75
2018-07-16T06:53:29.374Z,22.29
2018-07-16T06:55:58.603Z,21.24
2018-07-16T06:58:27.887Z,20.40
2018-07-16T07:00:57.169Z,19.43
2018-07-16T07:03:26.512Z,21.07
2018-07-16T07:05:55.879Z,22.11
2018-07-16T07:08:25.195Z,22.60
2018-07-16T07:10:54.418Z,21.70
2018-07-16T07:13:23.654Z,21.16
2018-07-16T07:15:52.875Z,21.73
2018-07-16T07:18:22.216Z,20.59
2018-07-16T07:20:51.570Z,20.54
2018-07-16T07:23:20.820Z,20.79
2018-07-16T07:25:50.372Z,21.64
2018-07-16T07:28:19.623Z,21.08
2018-07-16T07:30:49.872Z,20.97
2018-07-16T07:33:19.136Z,21.16
2018-07-16T07:35:48.462Z,21.70
2018-07-16T07:38:17.782Z,20.83
2018-07-16T07:40:47.004Z,20.34
2018-07-16T07:43:16.228Z,19.88
2018-07-16T07:45:45.495Z,20.82
2018-07-16T07:48:14.700Z,21.65
2018-07-16T07:50:44.126Z,20.56
2018-07-16T07:53:13.440Z,21.07
2018-07-16T07:55:42.915Z,20.02
2018-07-16T07:58:12.267Z,19.75
2018-07-16T08:00:41.473Z,21.14
2018-07-16T08:03:10.823Z,20.75
2018-07-16T08:05:40.084Z,20.35
2018-07-16T08:08:09.624Z,19.92
2018-07-16T08:10:45.452Z,19.66
2018-07-16T08:13:14.969Z,20.20
2018-07-16T08:15:44.353Z,20.38
2018-07-16T08:18:13.671Z,19.36
2018-07-16T08:20:42.913Z,20.74
2018-07-16T08:23:12.183Z,20.26
2018-07-16T08:25:41.623Z,20.13
2018-07-16T08:28:10.946Z,19.15
2018-07-16T08:30:40.477Z,19.35
2018-07-16T08:33:09.933Z,19.14
2018-07-16T08:35:39.612Z,19.17
2018-07-16T08:38:09.797Z,20.16
2018-07-16T08:40:39.188Z,19.50
2018-07-16T08:43:08.548Z,18.96
2018-07-16T08:45:37.802Z,17.21
2018-07-16T08:48:07.357Z,18.64
2018-07-16T08:50:36.714Z,18.93
2018-07-16T08:53:06.163Z,19.66
2018-07-16T08:55:35.439Z,19.20
2018-07-16T08:58:04.689Z,18.58
2018-07-16T09:00:33.941Z,18.12
2018-07-16T09:03:03.247Z,17.07
2018-07-16T09:05:32.518Z,17.36
2018-07-16T09:08:01.913Z,15.81
2018-07-16T09:10:31.281Z,15.79
2018-07-16T09:13:00.666Z,17.24
2018-07-16T09:15:30.043Z,17.02
2018-07-16T09:17:59.305Z,17.05
2018-07-16T09:20:28.526Z,14.38
2018-07-16T09:22:57.803Z,17.17
2018-07-16T09:25:27.316Z,15.59
2018-07-16T09:27:56.565Z,14.87
2018-07-16T09:30:25.868Z,16.50
2018-07-16T09:32:55.146Z,16.94
2018-07-16T09:35:24.496Z,17.23
2018-07-16T09:37:53.753Z,17.68
2018-07-16T09:40:23.243Z,16.76
2018-07-16T09:42:52.589Z,16.72
2018-07-16T09:45:21.842Z,18.25
2018-07-16T09:47:51.226Z,16.52
2018-07-16T09:50:20.666Z,16.74
2018-07-16T09:52:49.921Z,15.05
2018-07-16T09:55:19.333Z,14.85
2018-07-16T09:57:48.659Z,14.72
2018-07-16T10:00:23.219Z,16.39
2018-07-16T10:02:52.473Z,16.70
2018-07-16T10:05:21.841Z,17.74
2018-07-16T10:07:51.182Z,17.81
2018-07-16T10:10:20.461Z,17.60
2018-07-16T10:12:49.920Z,18.20
2018-07-16T10:15:19.594Z,18.64
2018-07-16T10:17:49.021Z,18.04
2018-07-16T10:20:18.483Z,18.60
2018-07-16T10:22:48.016Z,18.50
2018-07-16T10:25:17.621Z,19.24
2018-07-16T10:27:46.986Z,18.26
2018-07-16T10:30:16.687Z,19.05
2018-07-16T10:32:45.993Z,20.88
2018-07-16T10:35:15.258Z,21.82
2018-07-16T10:37:44.642Z,21.66
2018-07-16T10:40:14.130Z,24.54
2018-07-16T10:42:43.381Z,23.54
2018-07-16T10:45:12.648Z,24.57
2018-07-16T10:47:42.135Z,24.16
2018-07-16T10:50:11.393Z,24.91
2018-07-16T10:52:40.598Z,24.90
2018-07-16T10:55:09.905Z,26.11
2018-07-16T10:57:39.108Z,23.67
2018-07-16T11:00:08.373Z,21.78
2018-07-16T11:02:37.571Z,21.50
2018-07-16T11:05:06.903Z,19.29
2018-07-16T11:07:36.161Z,18.16
2018-07-16T11:10:05.463Z,17.44
2018-07-16T11:12:34.709Z,16.90
2018-07-16T11:15:04.074Z,15.67
2018-07-16T11:17:33.259Z,19.15
2018-07-16T11:20:02.521Z,18.36
2018-07-16T11:22:31.786Z,17.51
2018-07-16T11:25:01.045Z,18.31
2018-07-16T11:27:31.310Z,19.72
2018-07-16T11:30:00.787Z,19.90
2018-07-16T11:32:30.019Z,21.68
2018-07-16T11:34:59.458Z,21.46
2018-07-16T11:37:28.750Z,23.79
2018-07-16T11:39:58.104Z,26.01
2018-07-16T11:42:27.418Z,26.57
2018-07-16T11:44:56.670Z,26.87
2018-07-16T11:47:26.075Z,26.20
2018-07-16T11:49:55.357Z,26.73
2018-07-16T11:52:24.558Z,25.61
2018-07-16T11:54:53.808Z,26.52
2018-07-16T11:57:23.041Z,28.57
2018-07-16T11:59:52.385Z,25.62
2018-07-16T12:02:21.627Z,25.73
2018-07-16T12:04:50.887Z,25.02
2018-07-16T12:07:20.286Z,24.89
2018-07-16T12:09:49.631Z,26.23
2018-07-16T12:12:18.932Z,25.92
2018-07-16T12:14:48.283Z,25.29
2018-07-16T12:17:17.577Z,26.22
2018-07-16T12:19:46.829Z,25.47
2018-07-16T12:22:16.092Z,25.80
2018-07-16T12:24:45.379Z,25.35
2018-07-16T12:27:14.824Z,24.20
2018-07-16T12:29:44.081Z,25.14
2018-07-16T12:32:13.335Z,23.70
2018-07-16T12:34:42.649Z,24.35
2018-07-16T12:37:11.895Z,23.55
2018-07-16T12:39:41.176Z,23.23
2018-07-16T12:42:11.408Z,22.91
2018-07-16T12:44:41.519Z,23.42
2018-07-16T12:47:10.852Z,21.96
2018-07-16T12:49:40.230Z,22.68
2018-07-16T12:52:09.704Z,21.99
2018-07-16T12:54:39.133Z,23.65
2018-07-16T12:57:08.620Z,23.13
2018-07-16T12:59:37.819Z,22.58
2018-07-16T13:02:07.029Z,22.66
2018-07-16T13:04:36.276Z,23.44
2018-07-16T13:07:05.922Z,23.77
2018-07-16T13:09:35.212Z,22.77
2018-07-16T13:12:04.369Z,23.36
2018-07-16T13:14:33.536Z,23.01
2018-07-16T13:17:02.727Z,23.63
2018-07-16T13:19:31.916Z,24.36
2018-07-16T13:22:01.659Z,25.40
2018-07-16T13:24:31.162Z,25.40
2018-07-16T13:27:00.533Z,26.22
2018-07-16T13:29:30.184Z,26.21
2018-07-16T13:31:59.637Z,25.05
2018-07-16T13:34:28.858Z,25.31
2018-07-16T13:36:58.074Z,25.77
2018-07-16T13:39:27.589Z,24.24
2018-07-16T13:41:56.753Z,25.26
2018-07-16T13:44:25.922Z,24.31
2018-07-16T13:46:55.094Z,25.26
2018-07-16T13:49:24.259Z,24.48
2018-07-16T13:51:53.509Z,24.78
2018-07-16T13:54:22.869Z,25.86
2018-07-16T13:56:52.463Z,25.24
2018-07-16T13:59:21.698Z,25.94
2018-07-16T14:01:50.882Z,25.68
2018-07-16T14:04:20.127Z,25.23
2018-07-16T14:06:49.334Z,24.46
2018-07-16T14:09:18.683Z,23.97
2018-07-16T14:11:47.859Z,24.42
2018-07-16T14:14:17.028Z,23.68
2018-07-16T14:16:46.206Z,23.22
2018-07-16T14:19:15.426Z,25.22
2018-07-16T14:21:44.667Z,24.75
2018-07-16T14:24:13.840Z,23.35
2018-07-16T14:26:43.094Z,25.14
2018-07-16T14:29:12.305Z,27.01
2018-07-16T14:31:41.509Z,26.59
2018-07-16T14:34:10.684Z,26.75
2018-07-16T14:36:39.875Z,25.37
2018-07-16T14:39:09.080Z,27.00
2018-07-16T14:41:38.266Z,27.23
2018-07-16T14:44:07.441Z,25.47
2018-07-16T14:46:36.632Z,26.17
2018-07-16T14:49:06.246Z,26.51
2018-07-16T14:51:35.429Z,26.11
2018-07-16T14:54:10.613Z,26.20
2018-07-16T14:56:39.788Z,27.73
2018-07-16T14:59:08.971Z,25.62
2018-07-16T15:01:38.145Z,25.31
2018-07-16T15:04:07.519Z,24.69
2018-07-16T15:06:36.705Z,23.47
2018-07-16T15:09:07.846Z,24.87
2018-07-16T15:11:37.025Z,23.83
2018-07-16T15:14:06.529Z,25.29
2018-07-16T15:16:35.698Z,24.96
2018-07-16T15:19:05.061Z,26.18
2018-07-16T15:21:34.318Z,28.07
2018-07-16T15:24:03.423Z,26.92
2018-07-16T15:26:32.601Z,26.44
2018-07-16T15:29:01.770Z,25.83
2018-07-16T15:31:30.939Z,25.50
2018-07-16T15:34:00.129Z,25.07
2018-07-16T15:36:29.336Z,24.20
2018-07-16T15:38:58.534Z,25.98
2018-07-16T15:41:27.844Z,25.89
2018-07-16T15:43:57.023Z,26.83
2018-07-16T15:46:26.214Z,29.87
2018-07-16T15:48:55.419Z,29.18
2018-07-16T15:51:24.611Z,29.91
2018-07-16T15:53:53.918Z,29.44
2018-07-16T15:56:23.108Z,30.36
2018-07-16T15:58:52.294Z,30.97
2018-07-16T16:01:21.474Z,31.35
2018-07-16T16:03:50.769Z,34.11
2018-07-16T16:06:19.941Z,33.45
2018-07-16T16:08:49.125Z,36.11
2018-07-16T16:11:18.287Z,42.25
2018-07-16T16:13:47.522Z,43.74
2018-07-16T16:16:16.755Z,49.37
2018-07-16T16:18:45.939Z,53.60
2018-07-16T16:21:15.131Z,57.00
2018-07-16T16:23:44.293Z,57.19
2018-07-16T16:26:13.572Z,55.38
2018-07-16T16:28:42.744Z,53.83
2018-07-16T16:31:11.944Z,57.26
2018-07-16T16:33:41.117Z,58.88
2018-07-16T16:36:10.302Z,58.10
2018-07-16T16:38:39.520Z,57.31
2018-07-16T16:41:09.126Z,55.12
2018-07-16T16:43:38.331Z,54.72
2018-07-16T16:46:07.630Z,58.20
2018-07-16T16:48:36.814Z,59.61
2018-07-16T16:51:05.977Z,60.58
2018-07-16T16:53:35.145Z,61.58
2018-07-16T16:56:04.449Z,65.01
2018-07-16T16:58:34.082Z,61.37
2018-07-16T17:01:03.181Z,61.25
2018-07-16T17:03:32.473Z,59.50
2018-07-16T17:06:02.673Z,59.60
2018-07-16T17:08:31.850Z,59.84
2018-07-16T17:11:01.058Z,61.53
2018-07-16T17:13:30.217Z,60.33
2018-07-16T17:15:59.457Z,61.79
2018-07-16T17:18:28.709Z,61.92
2018-07-16T17:20:57.917Z,62.20
2018-07-16T17:23:27.079Z,64.29
2018-07-16T17:25:56.293Z,62.58
2018-07-16T17:28:25.478Z,63.74
2018-07-16T17:30:54.650Z,63.03
2018-07-16T17:33:23.820Z,64.95
2018-07-16T17:35:53.308Z,64.38
2018-07-16T17:38:22.505Z,63.30
2018-07-16T17:40:52.124Z,61.85
2018-07-16T17:43:21.747Z,62.18
2018-07-16T17:45:51.039Z,62.38
2018-07-16T17:48:20.229Z,64.27
2018-07-16T17:50:49.447Z,64.07
2018-07-16T17:53:18.700Z,64.58
2018-07-16T17:55:47.859Z,65.23
2018-07-16T17:58:17.042Z,65.46
2018-07-16T18:00:46.214Z,65.74
2018-07-16T18:03:15.403Z,64.95
2018-07-16T18:05:44.582Z,64.13
2018-07-16T18:08:13.764Z,63.92
2018-07-16T18:10:43.011Z,63.79
2018-07-16T18:13:12.228Z,64.11
2018-07-16T18:15:41.398Z,62.95
2018-07-16T18:18:10.630Z,63.29
2018-07-16T18:20:39.803Z,65.80
2018-07-16T18:23:09.046Z,65.65
2018-07-16T18:25:38.253Z,66.60
2018-07-16T18:28:07.446Z,65.70
2018-07-16T18:30:36.619Z,66.55
2018-07-16T18:33:05.933Z,65.87
2018-07-16T18:35:35.156Z,65.28
2018-07-16T18:38:04.314Z,65.17
2018-07-16T18:40:33.490Z,65.59
2018-07-16T18:43:02.720Z,65.82
2018-07-16T18:45:31.929Z,64.38
2018-07-16T18:48:01.096Z,64.12
2018-07-16T18:50:30.271Z,63.49
2018-07-16T18:52:59.472Z,64.57
2018-07-16T18:55:28.784Z,64.08
2018-07-16T18:57:57.930Z,63.67
2018-07-16T19:00:27.185Z,64.36
2018-07-16T19:02:56.436Z,64.01
2018-07-16T19:05:25.673Z,63.51
2018-07-16T19:11:29.820Z,64.04
2018-07-16T19:13:58.989Z,64.10
2018-07-16T19:16:28.175Z,62.96
2018-07-16T19:18:57.377Z,63.41
2018-07-16T19:21:26.586Z,63.43
2018-07-16T19:24:23.840Z,62.68
2018-07-16T19:26:53.004Z,62.93
2018-07-16T19:29:22.221Z,64.80
2018-07-16T19:31:51.436Z,64.93
2018-07-16T19:34:20.656Z,65.13
2018-07-16T19:36:49.847Z,65.92
2018-07-16T19:39:19.109Z,65.03
2018-07-16T19:41:48.240Z,63.65
2018-07-16T19:44:17.473Z,64.58
2018-07-16T19:46:46.726Z,63.77
2018-07-16T19:49:15.924Z,63.99
2018-07-16T19:51:45.097Z,63.34
2018-07-16T19:54:14.301Z,64.04
2018-07-16T19:56:43.537Z,63.96
2018-07-16T19:59:12.861Z,62.63
2018-07-16T20:01:42.392Z,62.75
2018-07-16T20:04:11.621Z,62.97
2018-07-16T20:06:40.848Z,62.80
2018-07-16T20:09:10.325Z,61.47
2018-07-16T20:11:39.669Z,63.22
2018-07-16T20:14:09.017Z,61.05
2018-07-16T20:16:43.077Z,61.64
2018-07-16T20:19:13.325Z,60.05
2018-07-16T20:21:42.776Z,62.25
2018-07-16T20:24:12.001Z,61.18
2018-07-16T20:26:41.185Z,59.23
2018-07-16T20:29:10.663Z,59.09
2018-07-16T20:31:39.874Z,60.95
2018-07-16T20:34:09.361Z,60.69
2018-07-16T20:36:38.662Z,60.37
2018-07-16T20:39:08.964Z,59.86
2018-07-16T20:41:38.203Z,60.17
2018-07-16T20:44:07.389Z,59.91
2018-07-16T20:46:36.718Z,59.96
2018-07-16T20:49:06.028Z,61.34
2018-07-16T20:51:35.204Z,60.11
2018-07-16T20:54:04.459Z,60.34
2018-07-16T20:56:33.640Z,61.46
2018-07-16T20:59:02.879Z,62.64
2018-07-16T21:01:32.082Z,62.47
2018-07-16T21:04:01.304Z,63.13
2018-07-16T21:06:30.497Z,62.41
2018-07-16T21:08:59.770Z,64.16
2018-07-16T21:11:29.005Z,62.82
2018-07-16T21:13:58.441Z,62.43
2018-07-16T21:16:27.681Z,63.29
2018-07-16T21:18:56.968Z,64.08
2018-07-16T21:21:26.161Z,61.82
2018-07-16T21:23:55.361Z,62.19
2018-07-16T21:26:24.628Z,62.71
2018-07-16T21:28:53.893Z,63.39
2018-07-16T21:31:23.124Z,62.89
2018-07-16T21:33:52.360Z,63.96
2018-07-16T21:36:21.548Z,62.68
2018-07-16T21:38:50.777Z,64.42
2018-07-16T21:41:19.990Z,63.97
2018-07-16T21:43:49.222Z,62.33
2018-07-16T21:46:18.405Z,63.19
2018-07-16T21:48:47.638Z,63.50
2018-07-16T21:51:16.892Z,61.10
2018-07-16T21:53:46.102Z,60.15
2018-07-16T21:56:15.307Z,62.65
2018-07-16T21:58:44.529Z,62.05
2018-07-16T22:01:13.709Z,62.25
2018-07-16T22:03:42.936Z,63.96
2018-07-16T22:06:12.181Z,62.17
2018-07-16T22:08:41.392Z,63.55
2018-07-16T22:11:10.661Z,63.93
2018-07-16T22:13:39.972Z,62.84
2018-07-16T22:16:09.236Z,62.05
2018-07-16T22:18:38.485Z,61.26
2018-07-16T22:21:07.660Z,62.30
2018-07-16T22:23:36.825Z,63.55
2018-07-16T22:26:06.116Z,62.58
2018-07-16T22:28:35.400Z,63.00
2018-07-16T22:31:04.583Z,63.84
2018-07-16T22:33:33.758Z,64.13
2018-07-16T22:36:02.956Z,63.68
2018-07-16T22:38:32.119Z,63.84
2018-07-16T22:41:01.277Z,63.54
2018-07-16T22:43:30.457Z,64.18
2018-07-16T22:45:59.613Z,64.31
2018-07-16T22:48:28.772Z,63.61
2018-07-16T22:50:57.946Z,63.87
2018-07-16T22:53:27.144Z,64.18
2018-07-16T22:55:56.337Z,63.47
2018-07-16T22:58:25.497Z,62.48
2018-07-16T23:00:54.645Z,62.65
2018-07-16T23:03:23.860Z,63.26
2018-07-16T23:05:53.093Z,61.83
2018-07-16T23:08:22.278Z,62.76
2018-07-16T23:10:51.416Z,64.67
2018-07-16T23:13:20.616Z,65.18
2018-07-16T23:15:49.785Z,64.17
2018-07-16T23:18:18.980Z,65.55
2018-07-16T23:20:48.137Z,64.68
2018-07-16T23:23:17.297Z,63.69
2018-07-16T23:25:46.449Z,64.00
2018-07-16T23:28:15.668Z,64.27
2018-07-16T23:30:44.849Z,64.81
2018-07-16T23:33:14.020Z,63.79
2018-07-16T23:35:43.205Z,64.50
2018-07-16T23:38:12.380Z,64.25
2018-07-16T23:40:41.537Z,63.94
2018-07-16T23:43:10.685Z,64.45
2018-07-16T23:45:39.844Z,64.86
2018-07-16T23:48:09.041Z,62.27
2018-07-16T23:50:38.334Z,63.67
2018-07-16T23:53:07.485Z,64.56
2018-07-16T23:55:36.697Z,65.15
2018-07-16T23:58:05.860Z,65.52
